createdAt,value
2022-11-13T00:00:24.722Z,6.25
2022-11-13T00:03:10.263Z,6.22
2022-11-13T00:06:02.379Z,6.19
2022-11-13T00:08:54.121Z,6.09
2022-11-13T00:11:39.199Z,6.05
2022-11-13T00:14:24.769Z,6.18
2022-11-13T00:17:10.127Z,6.18
2022-11-13T00:19:55.799Z,6.30
2022-11-13T00:22:41.221Z,6.33
2022-11-13T00:25:33.902Z,6.34
2022-11-13T00:28:19.063Z,6.44
2022-11-13T00:31:05.996Z,6.51
2022-11-13T00:36:56.906Z,6.54
2022-11-13T00:39:42.274Z,6.59
2022-11-13T00:42:27.869Z,6.66
2022-11-13T00:45:14.285Z,6.63
2022-11-13T00:48:08.609Z,6.71
2022-11-13T00:50:54.125Z,6.77
2022-11-13T00:53:39.372Z,6.68
2022-11-13T00:56:24.938Z,6.70
2022-11-13T00:59:10.735Z,6.75
2022-11-13T01:01:55.684Z,6.89
2022-11-13T01:04:52.620Z,6.93
2022-11-13T01:07:38.116Z,7.02
2022-11-13T01:10:24.885Z,7.05
2022-11-13T01:13:10.099Z,6.96
2022-11-13T01:15:55.456Z,6.93
2022-11-13T01:18:48.784Z,7.07
2022-11-13T01:21:34.034Z,7.15
2022-11-13T01:24:19.345Z,7.09
2022-11-13T01:27:07.429Z,6.97
2022-11-13T01:29:53.128Z,6.92
2022-11-13T01:32:38.690Z,6.93
2022-11-13T01:35:23.847Z,7.01
2022-11-13T01:38:09.414Z,6.94
2022-11-13T01:40:54.826Z,6.83
2022-11-13T01:43:47.585Z,6.75
2022-11-13T01:46:41.109Z,6.77
2022-11-13T01:49:34.861Z,6.69
2022-11-13T01:52:32.052Z,6.64
2022-11-13T01:55:32.828Z,6.73
2022-11-13T01:58:17.979Z,6.80
2022-11-13T02:01:03.385Z,7.05
2022-11-13T02:03:48.892Z,7.17
2022-11-13T02:06:43.027Z,7.08
2022-11-13T02:09:49.369Z,7.03
2022-11-13T02:12:37.189Z,6.89
2022-11-13T02:15:25.689Z,6.84
2022-11-13T02:18:11.397Z,6.75
2022-11-13T02:21:02.198Z,6.79
2022-11-13T02:24:12.001Z,6.72
2022-11-13T02:27:04.828Z,6.65
2022-11-13T02:29:49.878Z,6.51
2022-11-13T02:32:35.233Z,6.39
2022-11-13T02:35:27.043Z,6.27
2022-11-13T02:38:11.968Z,6.29
2022-11-13T02:40:57.269Z,6.20
2022-11-13T02:43:58.482Z,6.11
2022-11-13T02:46:44.161Z,5.98
2022-11-13T02:49:29.511Z,5.88
2022-11-13T02:52:14.916Z,5.78
2022-11-13T02:55:00.242Z,5.79
2022-11-13T02:57:45.294Z,5.82
2022-11-13T03:00:30.763Z,5.80
2022-11-13T03:03:24.827Z,5.92
2022-11-13T03:06:25.367Z,6.01
2022-11-13T03:09:10.645Z,5.84
2022-11-13T03:11:56.295Z,5.76
2022-11-13T03:14:41.400Z,5.62
2022-11-13T03:17:26.891Z,5.61
2022-11-13T03:20:12.206Z,5.51
2022-11-13T03:22:57.473Z,5.40
2022-11-13T03:25:42.923Z,5.50
2022-11-13T03:28:28.257Z,5.73
2022-11-13T03:31:14.106Z,5.84
2022-11-13T03:33:59.446Z,5.90
2022-11-13T03:36:44.734Z,6.22
2022-11-13T03:39:29.917Z,6.16
2022-11-13T03:42:15.257Z,5.92
2022-11-13T03:45:00.770Z,5.58
2022-11-13T03:47:46.021Z,5.35
2022-11-13T03:50:31.654Z,5.03
2022-11-13T03:53:16.692Z,4.82
2022-11-13T03:56:02.022Z,4.63
2022-11-13T03:58:49.663Z,4.58
2022-11-13T04:01:35.146Z,4.58
2022-11-13T04:04:20.716Z,4.51
2022-11-13T04:07:06.561Z,4.37
2022-11-13T04:09:51.620Z,4.20
2022-11-13T04:12:37.132Z,4.08
2022-11-13T04:15:27.848Z,4.01
2022-11-13T04:18:13.054Z,3.96
2022-11-13T04:21:00.103Z,4.12
2022-11-13T04:23:48.477Z,4.36
2022-11-13T04:26:33.892Z,4.46
2022-11-13T04:29:19.175Z,4.47
2022-11-13T04:32:07.600Z,4.31
2022-11-13T04:34:53.038Z,4.27
2022-11-13T04:37:38.507Z,4.29
2022-11-13T04:40:23.791Z,4.37
2022-11-13T04:43:09.102Z,4.36
2022-11-13T04:45:54.290Z,4.16
2022-11-13T04:48:39.568Z,3.94
2022-11-13T04:51:24.935Z,3.69
2022-11-13T04:54:10.248Z,3.42
2022-11-13T04:56:55.887Z,3.35
2022-11-13T04:59:40.963Z,3.38
2022-11-13T05:02:26.423Z,3.34
2022-11-13T05:05:11.767Z,3.23
2022-11-13T05:07:57.385Z,3.13
2022-11-13T05:10:50.889Z,2.99
2022-11-13T05:13:36.833Z,2.91
2022-11-13T05:16:21.813Z,2.76
2022-11-13T05:19:07.453Z,2.74
2022-11-13T05:21:52.611Z,2.86
2022-11-13T05:24:38.282Z,2.77
2022-11-13T05:27:23.428Z,2.88
2022-11-13T05:30:09.216Z,2.83
2022-11-13T05:32:54.629Z,3.02
2022-11-13T05:35:39.993Z,3.05
2022-11-13T05:38:25.458Z,3.03
2022-11-13T05:41:15.901Z,2.85
2022-11-13T05:44:01.581Z,2.79
2022-11-13T05:46:46.881Z,2.89
2022-11-13T05:49:38.469Z,2.75
2022-11-13T05:52:29.959Z,2.62
2022-11-13T05:55:15.602Z,2.65
2022-11-13T05:58:00.521Z,2.60
2022-11-13T06:00:46.168Z,2.49
2022-11-13T06:03:31.359Z,2.51
2022-11-13T06:06:18.794Z,2.56
2022-11-13T06:09:05.592Z,2.60
2022-11-13T06:11:51.037Z,2.63
2022-11-13T06:14:36.472Z,2.53
2022-11-13T06:17:21.903Z,2.51
2022-11-13T06:20:07.946Z,2.73
2022-11-13T06:23:01.905Z,2.76
2022-11-13T06:25:47.361Z,2.77
2022-11-13T06:28:33.107Z,2.63
2022-11-13T06:31:27.127Z,2.58
2022-11-13T06:34:12.284Z,2.55
2022-11-13T06:36:58.094Z,2.74
2022-11-13T06:39:43.283Z,2.81
2022-11-13T06:42:28.699Z,2.80
2022-11-13T06:45:14.125Z,2.88
2022-11-13T06:47:59.577Z,3.07
2022-11-13T06:50:48.465Z,3.28
2022-11-13T06:53:34.395Z,3.27
2022-11-13T06:56:19.957Z,3.18
2022-11-13T06:59:08.340Z,3.06
2022-11-13T07:01:54.206Z,2.97
2022-11-13T07:04:39.482Z,3.06
2022-11-13T07:07:25.046Z,3.07
2022-11-13T07:10:10.585Z,3.15
2022-11-13T07:12:59.812Z,3.24
2022-11-13T07:15:54.587Z,3.30
2022-11-13T07:18:39.978Z,3.30
2022-11-13T07:21:25.653Z,3.36
2022-11-13T07:24:16.608Z,3.30
2022-11-13T07:27:12.469Z,3.31
2022-11-13T07:30:03.318Z,3.26
2022-11-13T07:32:49.494Z,3.28
2022-11-13T07:35:41.898Z,3.33
2022-11-13T07:38:27.431Z,3.30
2022-11-13T07:41:12.993Z,3.26
2022-11-13T07:43:58.112Z,3.23
2022-11-13T07:46:43.456Z,3.23
2022-11-13T07:49:28.596Z,3.25
2022-11-13T07:52:13.834Z,3.13
2022-11-13T07:54:59.155Z,3.05
2022-11-13T07:57:44.368Z,3.05
2022-11-13T08:00:31.187Z,3.02
2022-11-13T08:03:17.137Z,3.09
2022-11-13T08:06:05.231Z,3.09
2022-11-13T08:08:50.452Z,3.15
2022-11-13T08:11:36.191Z,3.14
2022-11-13T08:14:21.596Z,3.17
2022-11-13T08:17:07.067Z,3.25
2022-11-13T08:19:52.491Z,3.27
2022-11-13T08:22:37.894Z,3.30
2022-11-13T08:25:25.402Z,3.36
2022-11-13T08:28:13.312Z,3.41
2022-11-13T08:31:01.625Z,3.47
2022-11-13T08:33:46.987Z,3.55
2022-11-13T08:36:32.232Z,3.65
2022-11-13T08:39:17.685Z,3.70
2022-11-13T08:42:03.902Z,3.85
2022-11-13T08:44:49.136Z,4.01
2022-11-13T08:47:34.344Z,4.09
2022-11-13T08:50:19.709Z,4.25
2022-11-13T08:53:05.598Z,4.22
2022-11-13T08:55:50.950Z,4.21
2022-11-13T08:58:36.309Z,4.29
2022-11-13T09:01:22.795Z,4.31
2022-11-13T09:04:08.415Z,4.36
2022-11-13T09:06:53.785Z,4.36
2022-11-13T09:09:39.121Z,4.40
2022-11-13T09:12:24.671Z,4.37
2022-11-13T09:15:11.386Z,4.53
2022-11-13T09:18:00.655Z,4.43
2022-11-13T09:20:48.789Z,4.57
2022-11-13T09:27:16.708Z,4.81
2022-11-13T09:30:34.145Z,4.87
2022-11-13T09:33:19.527Z,4.85
2022-11-13T09:37:42.507Z,5.04
2022-11-13T09:40:36.035Z,5.17
2022-11-13T09:43:44.675Z,5.17
2022-11-13T09:46:43.246Z,5.14
2022-11-13T09:49:41.982Z,5.14
2022-11-13T09:52:40.456Z,5.20
2022-11-13T09:55:36.629Z,5.21
2022-11-13T09:58:39.995Z,5.22
2022-11-13T10:02:13.114Z,5.23
2022-11-13T10:05:33.918Z,5.23
2022-11-13T10:08:55.348Z,5.30
2022-11-13T10:12:17.558Z,5.30
2022-11-13T10:15:48.851Z,5.33
2022-11-13T10:18:45.658Z,5.46
2022-11-13T10:21:48.074Z,5.52
2022-11-13T10:25:14.056Z,5.64
2022-11-13T10:28:48.889Z,5.81
2022-11-13T10:31:53.020Z,5.84
2022-11-13T10:35:08.525Z,5.99
2022-11-13T10:38:26.990Z,6.16
2022-11-13T10:41:22.381Z,6.37
2022-11-13T10:44:40.274Z,6.43
2022-11-13T10:48:02.097Z,6.47
2022-11-13T10:50:36.376Z,6.45
2022-11-13T10:53:22.087Z,6.52
2022-11-13T10:56:37.776Z,6.41
2022-11-13T10:59:32.221Z,6.33
2022-11-13T11:02:25.827Z,6.40
2022-11-13T11:05:23.033Z,6.36
2022-11-13T11:08:13.353Z,6.32
2022-11-13T11:11:18.888Z,6.34
2022-11-13T11:14:51.004Z,6.57
2022-11-13T11:17:55.429Z,6.82
2022-11-13T11:21:04.150Z,6.92
2022-11-13T11:23:57.663Z,7.21
2022-11-13T11:26:49.503Z,7.21
2022-11-13T11:29:36.798Z,7.26
2022-11-13T11:32:39.144Z,7.39
2022-11-13T11:35:49.502Z,7.39
2022-11-13T11:38:45.495Z,7.63
2022-11-13T11:41:40.138Z,7.68
2022-11-13T11:44:31.675Z,7.71
2022-11-13T11:47:18.100Z,7.75
2022-11-13T11:50:05.195Z,7.84
2022-11-13T11:52:59.763Z,7.81
2022-11-13T11:56:31.614Z,7.77
2022-11-13T11:59:29.867Z,7.81
2022-11-13T12:03:02.160Z,7.86
2022-11-13T12:06:20.850Z,7.94
2022-11-13T12:09:13.900Z,7.98
2022-11-13T12:12:18.143Z,7.97
2022-11-13T12:15:29.296Z,8.02
2022-11-13T12:18:22.814Z,8.10
2022-11-13T12:21:11.189Z,7.98
2022-11-13T12:27:53.457Z,8.03
2022-11-13T12:31:14.274Z,8.10
2022-11-13T12:34:21.315Z,8.16
2022-11-13T12:37:19.854Z,8.10
2022-11-13T12:40:42.911Z,8.11
2022-11-13T12:43:42.227Z,8.08
2022-11-13T12:53:56.146Z,7.96
2022-11-13T12:56:41.256Z,7.86
2022-11-13T12:59:35.083Z,7.84
2022-11-13T13:02:37.502Z,7.99
2022-11-13T13:05:35.011Z,7.92
2022-11-13T13:08:41.786Z,7.81
2022-11-13T13:11:48.769Z,7.81
2022-11-13T13:14:57.135Z,7.93
2022-11-13T13:17:42.531Z,8.03
2022-11-13T13:20:31.624Z,8.00
2022-11-13T13:23:46.222Z,7.88
2022-11-13T13:26:31.546Z,7.71
2022-11-13T13:29:20.829Z,7.55
2022-11-13T13:32:52.561Z,7.69
2022-11-13T13:36:15.315Z,7.65
2022-11-13T13:39:38.905Z,7.79
2022-11-13T13:42:46.993Z,7.75
2022-11-13T13:45:46.945Z,7.85
2022-11-13T13:48:32.297Z,7.68
2022-11-13T13:51:34.624Z,7.88
2022-11-13T13:54:23.915Z,7.82
2022-11-13T13:57:13.674Z,7.83
2022-11-13T13:59:58.938Z,7.80
2022-11-13T14:02:55.426Z,7.81
2022-11-13T14:05:40.453Z,7.53
2022-11-13T14:08:27.109Z,7.52
2022-11-13T14:11:29.922Z,7.53
2022-11-13T14:14:23.165Z,7.43
2022-11-13T14:17:10.337Z,7.24
2022-11-13T14:20:00.647Z,7.22
2022-11-13T14:22:55.107Z,7.18
2022-11-13T14:25:44.565Z,6.86
2022-11-13T14:28:32.858Z,6.90
2022-11-13T14:31:18.493Z,6.77
2022-11-13T14:34:10.244Z,6.60
2022-11-13T14:36:55.833Z,6.53
2022-11-13T14:39:45.473Z,6.38
2022-11-13T14:42:37.299Z,6.25
2022-11-13T14:45:24.139Z,6.25
2022-11-13T14:48:25.131Z,6.05
2022-11-13T14:51:24.571Z,5.98
2022-11-13T14:55:08.000Z,5.76
2022-11-13T14:57:49.570Z,5.65
2022-11-13T15:00:36.677Z,5.64
2022-11-13T15:03:22.176Z,5.56
2022-11-13T15:06:27.419Z,5.43
2022-11-13T15:09:15.196Z,5.35
2022-11-13T15:12:00.586Z,5.22
2022-11-13T15:14:45.845Z,5.27
2022-11-13T15:17:31.374Z,5.20
2022-11-13T15:20:19.930Z,5.19
2022-11-13T15:23:05.184Z,5.20
2022-11-13T15:25:50.666Z,5.06
2022-11-13T15:28:41.535Z,4.98
2022-11-13T15:31:33.307Z,4.90
2022-11-13T15:34:18.483Z,4.89
2022-11-13T15:37:10.926Z,4.94
2022-11-13T15:39:56.323Z,4.91
2022-11-13T15:42:43.669Z,4.81
2022-11-13T15:45:28.849Z,4.88
2022-11-13T15:48:14.097Z,4.82
2022-11-13T15:50:59.357Z,4.85
2022-11-13T15:53:55.642Z,4.89
2022-11-13T15:56:40.799Z,4.87
2022-11-13T15:59:26.218Z,4.99
2022-11-13T16:02:11.495Z,4.86
2022-11-13T16:04:57.399Z,4.78
2022-11-13T16:07:43.118Z,4.66
2022-11-13T16:10:28.474Z,4.62
2022-11-13T16:13:13.972Z,4.59
2022-11-13T16:16:00.146Z,4.44
2022-11-13T16:18:46.124Z,4.42
2022-11-13T16:21:31.541Z,4.34
2022-11-13T16:24:19.916Z,4.28
2022-11-13T16:27:09.275Z,4.15
2022-11-13T16:29:54.536Z,4.24
2022-11-13T16:32:39.853Z,4.13
2022-11-13T16:35:25.209Z,4.06
2022-11-13T16:38:26.428Z,4.03
2022-11-13T16:41:16.657Z,3.97
2022-11-13T16:44:01.704Z,4.01
2022-11-13T16:46:49.574Z,3.95
2022-11-13T16:49:34.830Z,3.94
2022-11-13T16:52:20.232Z,3.91
2022-11-13T16:55:06.780Z,3.97
2022-11-13T16:57:54.971Z,3.76
2022-11-13T17:00:40.184Z,3.66
2022-11-13T17:06:31.772Z,3.67
2022-11-13T17:09:16.710Z,3.76
2022-11-13T17:12:02.512Z,3.80
2022-11-13T17:14:47.998Z,3.76
2022-11-13T17:17:33.277Z,3.81
2022-11-13T17:20:43.992Z,3.79
2022-11-13T17:23:29.953Z,3.82
2022-11-13T17:26:15.546Z,3.89
2022-11-13T17:29:02.102Z,3.91
2022-11-13T17:31:47.817Z,3.86
2022-11-13T17:34:43.607Z,3.82
2022-11-13T17:37:28.910Z,3.78
2022-11-13T17:40:28.056Z,3.83
2022-11-13T17:43:15.305Z,3.82
2022-11-13T17:46:00.717Z,3.81
2022-11-13T17:48:52.973Z,3.94
2022-11-13T17:51:46.219Z,4.03
2022-11-13T17:54:39.283Z,3.98
2022-11-13T17:57:27.096Z,3.91
2022-11-13T18:00:25.162Z,3.92
2022-11-13T18:03:10.517Z,3.94
2022-11-13T18:05:56.430Z,4.02
2022-11-13T18:08:44.890Z,4.01
2022-11-13T18:11:30.712Z,3.98
2022-11-13T18:14:15.942Z,3.96
2022-11-13T18:17:10.298Z,3.98
2022-11-13T18:22:55.697Z,4.22
2022-11-13T18:25:46.409Z,4.07
2022-11-13T18:29:01.905Z,4.23
2022-11-13T18:32:00.417Z,4.28
2022-11-13T18:34:59.467Z,4.38
2022-11-13T18:38:04.208Z,4.37
2022-11-13T18:44:04.276Z,4.48
2022-11-13T18:47:07.949Z,4.40
2022-11-13T18:50:01.953Z,4.40
2022-11-13T18:52:55.225Z,4.38
2022-11-13T18:55:40.533Z,4.40
2022-11-13T18:58:25.972Z,4.44
2022-11-13T19:01:22.176Z,4.62
2022-11-13T19:04:26.124Z,4.59
2022-11-13T19:07:18.038Z,4.61
2022-11-13T19:10:04.157Z,4.71
2022-11-13T19:13:15.205Z,4.61
2022-11-13T19:16:12.739Z,4.60
2022-11-13T19:19:00.030Z,4.59
2022-11-13T19:21:45.896Z,4.65
2022-11-13T19:24:34.471Z,4.60
2022-11-13T19:27:19.625Z,4.72
2022-11-13T19:30:05.428Z,4.73
2022-11-13T19:32:56.106Z,4.75
2022-11-13T19:35:43.222Z,4.72
2022-11-13T19:38:32.233Z,4.75
2022-11-13T19:41:19.547Z,4.70
2022-11-13T19:44:15.608Z,4.71
2022-11-13T19:47:07.374Z,4.68
2022-11-13T19:49:55.783Z,4.72
2022-11-13T19:52:48.907Z,4.79
2022-11-13T19:55:34.821Z,4.76
2022-11-13T19:59:10.895Z,4.72
2022-11-13T20:02:03.999Z,4.70
2022-11-13T20:04:49.306Z,4.65
2022-11-13T20:07:34.999Z,4.60
2022-11-13T20:10:24.282Z,4.72
2022-11-13T20:13:09.705Z,4.72
2022-11-13T20:15:55.215Z,4.58
2022-11-13T20:18:41.751Z,4.58
2022-11-13T20:21:28.699Z,4.55
2022-11-13T20:24:13.897Z,4.48
2022-11-13T20:26:59.238Z,4.46
2022-11-13T20:29:44.772Z,4.44
2022-11-13T20:32:30.304Z,4.42
2022-11-13T20:35:24.921Z,4.35
2022-11-13T20:38:10.439Z,4.27
2022-11-13T20:40:56.105Z,4.33
2022-11-13T20:43:44.420Z,4.20
2022-11-13T20:46:30.618Z,4.25
2022-11-13T20:49:16.205Z,4.22
2022-11-13T20:52:03.296Z,4.22
2022-11-13T20:54:48.629Z,4.32
2022-11-13T20:57:38.199Z,4.29
2022-11-13T21:00:26.233Z,4.33
2022-11-13T21:03:11.541Z,4.33
2022-11-13T21:05:57.366Z,4.37
2022-11-13T21:08:43.251Z,4.34
2022-11-13T21:11:29.538Z,4.36
2022-11-13T21:14:14.658Z,4.32
2022-11-13T21:17:05.580Z,4.32
2022-11-13T21:19:55.003Z,4.23
2022-11-13T21:22:41.896Z,4.31
2022-11-13T21:25:27.416Z,4.20
2022-11-13T21:28:19.513Z,4.19
2022-11-13T21:31:11.143Z,4.04
2022-11-13T21:33:57.489Z,4.13
2022-11-13T21:36:42.717Z,4.05
2022-11-13T21:39:28.198Z,3.90
2022-11-13T21:42:13.551Z,3.84
2022-11-13T21:45:01.808Z,3.89
2022-11-13T21:47:54.817Z,3.89
2022-11-13T21:50:39.939Z,3.80
2022-11-13T21:53:25.402Z,3.65
2022-11-13T21:56:15.912Z,3.68
2022-11-13T21:59:01.702Z,3.65
2022-11-13T22:01:47.204Z,3.75
2022-11-13T22:04:35.689Z,3.76
2022-11-13T22:07:21.126Z,3.54
2022-11-13T22:10:08.512Z,3.56
2022-11-13T22:12:55.143Z,3.44
2022-11-13T22:15:40.620Z,3.52
2022-11-13T22:18:25.887Z,3.43
2022-11-13T22:21:08.306Z,3.48
2022-11-13T22:24:07.346Z,3.54
2022-11-13T22:26:52.627Z,3.53
2022-11-13T22:29:38.111Z,3.45
2022-11-13T22:32:23.403Z,3.43
2022-11-13T22:35:09.163Z,3.45
2022-11-13T22:37:54.168Z,3.43
2022-11-13T22:40:39.624Z,3.52
2022-11-13T22:43:25.301Z,3.42
2022-11-13T22:46:19.194Z,3.32
2022-11-13T22:49:05.707Z,3.34
2022-11-13T22:51:53.389Z,3.26
2022-11-13T22:54:58.926Z,3.19
2022-11-13T22:57:54.646Z,3.19
2022-11-13T23:00:42.535Z,3.16
2022-11-13T23:03:45.018Z,3.12
2022-11-13T23:06:41.548Z,3.25
2022-11-13T23:09:49.636Z,3.05
2022-11-13T23:12:38.225Z,3.13
2022-11-13T23:15:29.732Z,3.10
2022-11-13T23:18:27.799Z,2.97
2022-11-13T23:21:17.786Z,2.69
2022-11-13T23:24:03.741Z,2.58
2022-11-13T23:30:46.929Z,2.57
2022-11-13T23:33:50.331Z,2.52
2022-11-13T23:36:42.209Z,2.53
2022-11-13T23:39:36.634Z,2.65
2022-11-13T23:46:14.831Z,2.44
2022-11-13T23:49:39.877Z,2.18
2022-11-13T23:52:55.277Z,2.35
2022-11-13T23:55:41.526Z,2.43
2022-11-13T23:58:46.172Z,2.44
